createdAt,value
2023-04-16T00:00:25.488Z,11.77
2023-04-16T00:02:56.052Z,11.93
2023-04-16T00:05:27.551Z,11.18
2023-04-16T00:07:57.879Z,11.73
2023-04-16T00:10:31.143Z,11.35
2023-04-16T00:13:01.718Z,11.55
2023-04-16T00:15:32.187Z,12.15
2023-04-16T00:18:02.685Z,12.93
2023-04-16T00:20:33.056Z,11.35
2023-04-16T00:23:03.567Z,11.18
2023-04-16T00:25:36.524Z,10.77
2023-04-16T00:28:09.024Z,11.60
2023-04-16T00:30:40.407Z,11.45
2023-04-16T00:33:11.002Z,11.77
2023-04-16T00:35:41.364Z,11.70
2023-04-16T00:38:12.375Z,11.45
2023-04-16T00:40:45.353Z,11.13
2023-04-16T00:43:24.930Z,10.50
2023-04-16T00:45:57.036Z,10.55
2023-04-16T00:48:28.325Z,11.00
2023-04-16T00:50:59.217Z,10.63
2023-04-16T00:53:30.141Z,10.88
2023-04-16T00:56:03.655Z,10.77
2023-04-16T00:58:34.977Z,11.05
2023-04-16T01:01:05.796Z,10.60
2023-04-16T01:03:42.972Z,10.20
2023-04-16T01:06:14.350Z,10.60
2023-04-16T01:08:44.855Z,10.50
2023-04-16T01:11:18.478Z,10.60
2023-04-16T01:13:48.880Z,10.32
2023-04-16T01:16:19.504Z,10.63
2023-04-16T01:18:50.552Z,10.30
2023-04-16T01:21:23.564Z,9.65
2023-04-16T01:23:53.933Z,10.65
2023-04-16T01:26:24.533Z,9.50
2023-04-16T01:28:54.861Z,10.18
2023-04-16T01:31:25.235Z,9.90
2023-04-16T01:34:25.515Z,10.02
2023-04-16T01:36:58.517Z,10.40
2023-04-16T01:39:29.028Z,9.65
2023-04-16T01:42:01.589Z,9.60
2023-04-16T01:44:31.898Z,9.68
2023-04-16T01:47:02.415Z,8.80
2023-04-16T01:49:34.079Z,9.02
2023-04-16T01:52:08.666Z,8.10
2023-04-16T01:54:39.106Z,8.93
2023-04-16T01:57:09.652Z,7.95
2023-04-16T01:59:40.199Z,9.27
2023-04-16T02:02:14.990Z,8.63
2023-04-16T02:04:48.095Z,9.05
2023-04-16T02:07:21.101Z,9.13
2023-04-16T02:09:51.931Z,9.02
2023-04-16T02:12:23.050Z,8.85
2023-04-16T02:14:53.556Z,8.80
2023-04-16T02:17:24.402Z,9.90
2023-04-16T02:20:08.199Z,9.27
2023-04-16T02:25:17.358Z,9.10
2023-04-16T02:27:47.896Z,8.88
2023-04-16T02:30:35.043Z,9.20
2023-04-16T02:33:07.797Z,9.68
2023-04-16T02:35:39.488Z,9.95
2023-04-16T02:38:12.857Z,9.93
2023-04-16T02:40:44.016Z,9.57
2023-04-16T02:43:14.926Z,10.52
2023-04-16T02:45:45.301Z,9.93
2023-04-16T02:48:15.726Z,9.73
2023-04-16T02:50:46.142Z,10.43
2023-04-16T02:53:19.101Z,9.73
2023-04-16T02:55:55.503Z,10.48
2023-04-16T02:58:28.085Z,10.55
2023-04-16T03:00:58.793Z,10.68
2023-04-16T03:03:29.302Z,10.13
2023-04-16T03:05:59.944Z,10.63
2023-04-16T03:08:32.925Z,10.45
2023-04-16T03:11:03.234Z,10.57
2023-04-16T03:13:33.643Z,10.45
2023-04-16T03:16:04.300Z,10.52
2023-04-16T03:18:34.648Z,10.38
2023-04-16T03:21:05.195Z,11.10
2023-04-16T03:23:38.645Z,9.80
2023-04-16T03:26:09.295Z,10.63
2023-04-16T03:28:39.717Z,10.07
2023-04-16T03:31:10.151Z,10.88
2023-04-16T03:33:41.479Z,10.70
2023-04-16T03:36:12.984Z,9.93
2023-04-16T03:38:45.943Z,9.90
2023-04-16T03:41:17.580Z,10.40
2023-04-16T03:43:48.273Z,9.80
2023-04-16T03:46:19.547Z,9.73
2023-04-16T03:48:49.924Z,9.93
2023-04-16T03:51:20.914Z,9.65
2023-04-16T03:53:54.121Z,10.10
2023-04-16T03:56:24.570Z,10.82
2023-04-16T03:58:56.318Z,10.57
2023-04-16T04:01:26.731Z,11.18
2023-04-16T04:03:57.357Z,11.27
2023-04-16T04:06:27.915Z,11.95
2023-04-16T04:09:01.119Z,11.38
2023-04-16T04:11:31.788Z,11.40
2023-04-16T04:14:02.268Z,12.90
2023-04-16T04:16:32.851Z,12.82
2023-04-16T04:19:03.444Z,12.77
2023-04-16T04:21:34.426Z,12.65
2023-04-16T04:24:09.406Z,12.65
2023-04-16T04:26:40.002Z,13.45
2023-04-16T04:29:10.619Z,11.93
2023-04-16T04:31:41.194Z,11.88
2023-04-16T04:34:11.728Z,12.10
2023-04-16T04:36:42.237Z,12.90
2023-04-16T04:39:15.123Z,12.27
2023-04-16T04:41:47.399Z,11.88
2023-04-16T04:44:17.823Z,12.30
2023-04-16T04:46:48.237Z,12.13
2023-04-16T04:49:18.573Z,13.18
2023-04-16T04:51:48.995Z,12.02
2023-04-16T04:54:22.089Z,13.00
2023-04-16T04:56:52.678Z,12.38
2023-04-16T04:59:24.092Z,12.55
2023-04-16T05:01:54.878Z,12.93
2023-04-16T05:04:25.265Z,12.68
2023-04-16T05:06:55.752Z,13.52
2023-04-16T05:09:28.724Z,12.98
2023-04-16T05:11:59.126Z,13.90
2023-04-16T05:14:29.486Z,14.15
2023-04-16T05:16:59.961Z,13.95
2023-04-16T05:19:30.425Z,13.73
2023-04-16T05:22:02.954Z,13.48
2023-04-16T05:24:36.100Z,14.40
2023-04-16T05:27:06.641Z,14.00
2023-04-16T05:29:37.017Z,13.88
2023-04-16T05:32:07.645Z,14.93
2023-04-16T05:34:38.230Z,14.85
2023-04-16T05:37:08.576Z,16.80
2023-04-16T05:39:41.529Z,17.40
2023-04-16T05:42:11.990Z,16.20
2023-04-16T05:44:43.808Z,17.50
2023-04-16T05:47:14.388Z,17.98
2023-04-16T05:49:44.870Z,18.30
2023-04-16T05:52:15.545Z,20.05
2023-04-16T05:54:48.493Z,20.13
2023-04-16T05:57:18.977Z,21.67
2023-04-16T05:59:49.537Z,20.42
2023-04-16T06:02:20.103Z,21.85
2023-04-16T06:04:50.694Z,21.83
2023-04-16T06:07:21.120Z,22.25
2023-04-16T06:09:54.069Z,22.42
2023-04-16T06:12:24.669Z,23.13
2023-04-16T06:14:55.366Z,23.73
2023-04-16T06:17:26.091Z,23.50
2023-04-16T06:19:56.686Z,23.63
2023-04-16T06:22:27.890Z,22.05
2023-04-16T06:25:01.076Z,21.80
2023-04-16T06:27:31.477Z,21.75
2023-04-16T06:30:01.864Z,22.75
2023-04-16T06:32:32.350Z,23.08
2023-04-16T06:35:02.855Z,21.98
2023-04-16T06:37:33.344Z,22.83
2023-04-16T06:40:06.972Z,23.35
2023-04-16T06:42:37.412Z,22.35
2023-04-16T06:45:09.795Z,23.25
2023-04-16T06:47:40.284Z,24.20
2023-04-16T06:50:12.069Z,23.02
2023-04-16T06:52:42.433Z,23.27
2023-04-16T06:55:15.828Z,23.88
2023-04-16T06:57:46.333Z,24.15
2023-04-16T07:00:17.460Z,23.98
2023-04-16T07:02:48.081Z,22.90
2023-04-16T07:05:18.614Z,24.02
2023-04-16T07:07:48.945Z,23.25
2023-04-16T07:10:21.853Z,22.63
2023-04-16T07:12:52.239Z,22.23
2023-04-16T07:15:23.016Z,21.38
2023-04-16T07:17:54.214Z,21.95
2023-04-16T07:20:24.672Z,20.92
2023-04-16T07:22:55.201Z,21.02
2023-04-16T07:25:28.458Z,21.05
2023-04-16T07:27:58.981Z,21.80
2023-04-16T07:30:34.249Z,22.58
2023-04-16T07:33:05.996Z,21.55
2023-04-16T07:35:36.643Z,20.60
2023-04-16T07:38:07.003Z,23.42
2023-04-16T07:40:40.284Z,19.58
2023-04-16T07:43:10.771Z,20.45
2023-04-16T07:45:41.551Z,20.50
2023-04-16T07:48:12.060Z,20.42
2023-04-16T07:50:43.869Z,19.95
2023-04-16T07:53:14.826Z,20.25
2023-04-16T07:55:47.786Z,19.13
2023-04-16T07:58:18.284Z,20.17
2023-04-16T08:00:50.810Z,19.00
2023-04-16T08:03:21.710Z,18.52
2023-04-16T08:05:52.432Z,18.35
2023-04-16T08:08:22.892Z,19.35
2023-04-16T08:10:56.495Z,18.95
2023-04-16T08:13:27.395Z,17.67
2023-04-16T08:15:57.759Z,17.70
2023-04-16T08:18:28.402Z,17.38
2023-04-16T08:20:59.048Z,17.23
2023-04-16T08:23:29.874Z,16.50
2023-04-16T08:26:03.978Z,17.13
2023-04-16T08:28:35.306Z,16.48
2023-04-16T08:31:06.013Z,15.85
2023-04-16T08:33:36.416Z,16.52
2023-04-16T08:36:07.437Z,16.83
2023-04-16T08:38:37.854Z,16.27
2023-04-16T08:41:15.582Z,15.75
2023-04-16T08:43:48.480Z,15.27
2023-04-16T08:46:20.700Z,16.52
2023-04-16T08:48:56.934Z,16.15
2023-04-16T08:51:28.275Z,16.00
2023-04-16T08:54:08.350Z,14.60
2023-04-16T08:56:43.297Z,16.02
2023-04-16T08:59:14.166Z,15.48
2023-04-16T09:01:45.657Z,15.52
2023-04-16T09:04:18.999Z,15.52
2023-04-16T09:06:50.781Z,16.83
2023-04-16T09:09:23.432Z,16.15
2023-04-16T09:11:58.942Z,15.10
2023-04-16T09:14:29.303Z,14.52
2023-04-16T09:17:01.348Z,15.02
2023-04-16T09:19:31.811Z,15.52
2023-04-16T09:22:02.452Z,14.65
2023-04-16T09:24:33.464Z,15.77
2023-04-16T09:27:06.700Z,15.25
2023-04-16T09:29:38.794Z,13.85
2023-04-16T09:32:12.355Z,15.23
2023-04-16T09:35:00.798Z,15.35
2023-04-16T09:37:32.776Z,14.88
2023-04-16T09:40:05.048Z,14.95
2023-04-16T09:42:40.306Z,15.75
2023-04-16T09:45:11.840Z,15.57
2023-04-16T09:47:44.509Z,16.38
2023-04-16T09:50:20.333Z,14.88
2023-04-16T09:52:53.270Z,15.30
2023-04-16T09:55:29.266Z,15.25
2023-04-16T09:58:05.337Z,15.10
2023-04-16T10:00:36.027Z,15.93
2023-04-16T10:03:14.301Z,15.88
2023-04-16T10:05:45.061Z,14.75
2023-04-16T10:08:16.622Z,16.55
2023-04-16T10:10:47.727Z,15.95
2023-04-16T10:13:21.015Z,16.30
2023-04-16T10:15:52.364Z,17.05
2023-04-16T10:18:23.478Z,16.10
2023-04-16T10:20:54.781Z,15.38
2023-04-16T10:23:26.054Z,17.85
2023-04-16T10:25:58.183Z,15.70
2023-04-16T10:28:31.962Z,15.50
2023-04-16T10:31:04.982Z,16.30
2023-04-16T10:33:38.341Z,16.55
2023-04-16T10:36:13.700Z,16.75
2023-04-16T10:38:49.252Z,15.95
2023-04-16T10:41:19.908Z,15.35
2023-04-16T10:43:54.092Z,15.25
2023-04-16T10:46:27.082Z,15.23
2023-04-16T10:48:59.875Z,15.10
2023-04-16T10:51:33.327Z,14.98
2023-04-16T10:54:22.771Z,16.13
2023-04-16T10:56:54.104Z,14.93
2023-04-16T10:59:28.597Z,13.48
2023-04-16T11:02:02.576Z,14.25
2023-04-16T11:04:37.733Z,13.30
2023-04-16T11:07:20.344Z,12.27
2023-04-16T11:09:56.855Z,12.30
2023-04-16T11:12:30.246Z,11.90
2023-04-16T11:15:06.710Z,10.82
2023-04-16T11:17:41.955Z,12.50
2023-04-16T11:20:20.436Z,13.40
2023-04-16T11:22:51.832Z,11.07
2023-04-16T11:25:26.419Z,10.98
2023-04-16T11:27:58.084Z,9.48
2023-04-16T11:30:36.844Z,9.60
2023-04-16T11:33:14.171Z,10.10
2023-04-16T11:35:46.207Z,9.32
2023-04-16T11:38:16.822Z,9.48
2023-04-16T11:40:47.951Z,9.75
2023-04-16T11:43:20.148Z,9.07
2023-04-16T11:46:10.324Z,8.57
2023-04-16T11:48:53.304Z,8.60
2023-04-16T11:51:24.122Z,10.02
2023-04-16T11:53:56.989Z,8.68
2023-04-16T11:56:31.239Z,8.77
2023-04-16T11:59:15.685Z,8.63
2023-04-16T12:01:51.655Z,7.82
2023-04-16T12:04:25.194Z,8.18
2023-04-16T12:07:12.629Z,8.55
2023-04-16T12:09:45.524Z,8.55
2023-04-16T12:12:32.589Z,7.80
2023-04-16T12:15:05.980Z,7.32
2023-04-16T12:17:41.132Z,7.77
2023-04-16T12:20:14.347Z,7.68
2023-04-16T12:22:49.945Z,7.40
2023-04-16T12:25:21.666Z,7.22
2023-04-16T12:27:54.384Z,6.57
2023-04-16T12:30:27.857Z,7.18
2023-04-16T12:33:21.512Z,6.88
2023-04-16T12:35:52.784Z,6.15
2023-04-16T12:38:24.701Z,6.85
2023-04-16T12:40:57.397Z,6.07
2023-04-16T12:43:28.725Z,6.28
2023-04-16T12:45:59.271Z,6.13
2023-04-16T12:48:32.887Z,6.53
2023-04-16T12:51:03.319Z,5.90
2023-04-16T12:53:33.708Z,5.80
2023-04-16T12:56:04.386Z,6.70
2023-04-16T12:58:34.852Z,5.53
2023-04-16T13:01:05.375Z,5.53
2023-04-16T13:03:38.674Z,5.65
2023-04-16T13:06:09.240Z,6.32
2023-04-16T13:08:40.408Z,6.70
2023-04-16T13:11:11.731Z,6.57
2023-04-16T13:13:42.222Z,6.55
2023-04-16T13:16:12.934Z,6.40
2023-04-16T13:18:46.023Z,7.10
2023-04-16T13:21:16.753Z,6.35
2023-04-16T13:23:47.121Z,6.25
2023-04-16T13:26:17.697Z,6.60
2023-04-16T13:28:48.181Z,7.28
2023-04-16T13:31:22.258Z,7.25
2023-04-16T13:33:55.747Z,7.53
2023-04-16T13:36:27.641Z,6.75
2023-04-16T13:38:58.206Z,8.10
2023-04-16T13:41:28.953Z,8.05
2023-04-16T13:43:59.338Z,8.70
2023-04-16T13:46:29.934Z,8.38
2023-04-16T13:49:02.998Z,8.40
2023-04-16T13:51:33.391Z,8.48
2023-04-16T13:54:03.904Z,7.45
2023-04-16T13:56:34.277Z,8.57
2023-04-16T13:59:04.904Z,7.70
2023-04-16T14:01:35.272Z,8.43
2023-04-16T14:04:09.812Z,7.95
2023-04-16T14:06:40.410Z,8.63
2023-04-16T14:09:11.190Z,9.57
2023-04-16T14:11:42.010Z,9.25
2023-04-16T14:14:12.557Z,9.38
2023-04-16T14:16:43.290Z,8.27
2023-04-16T14:19:16.621Z,7.95
2023-04-16T14:21:47.079Z,9.20
2023-04-16T14:24:17.483Z,9.50
2023-04-16T14:26:48.120Z,8.88
2023-04-16T14:29:18.630Z,9.50
2023-04-16T14:31:50.483Z,12.32
2023-04-16T14:34:23.744Z,10.02
2023-04-16T14:36:54.200Z,9.48
2023-04-16T14:39:25.109Z,10.15
2023-04-16T14:41:55.476Z,11.18
2023-04-16T14:44:25.937Z,10.32
2023-04-16T14:46:56.632Z,10.77
2023-04-16T14:49:29.796Z,10.68
2023-04-16T14:52:02.249Z,13.25
2023-04-16T14:54:32.609Z,11.65
2023-04-16T14:57:03.741Z,12.30
2023-04-16T14:59:34.412Z,13.00
2023-04-16T15:02:05.142Z,12.70
2023-04-16T15:04:38.439Z,13.50
2023-04-16T15:07:08.926Z,12.38
2023-04-16T15:09:39.276Z,13.98
2023-04-16T15:12:09.881Z,13.88
2023-04-16T15:14:40.522Z,14.95
2023-04-16T15:17:11.055Z,13.93
2023-04-16T15:19:44.231Z,14.93
2023-04-16T15:22:15.073Z,14.45
2023-04-16T15:24:45.566Z,14.90
2023-04-16T15:27:17.784Z,15.02
2023-04-16T15:29:51.136Z,16.42
2023-04-16T15:32:21.769Z,14.85
2023-04-16T15:34:55.135Z,14.98
2023-04-16T15:37:25.610Z,15.43
2023-04-16T15:39:56.922Z,15.98
2023-04-16T15:42:27.610Z,15.80
2023-04-16T15:44:58.010Z,15.68
2023-04-16T15:47:28.599Z,16.70
2023-04-16T15:50:04.753Z,16.98
2023-04-16T15:52:35.149Z,17.50
2023-04-16T15:55:05.791Z,17.45
2023-04-16T15:57:36.291Z,18.73
2023-04-16T16:00:13.555Z,17.65
2023-04-16T16:02:44.591Z,19.05
2023-04-16T16:05:18.919Z,16.70
2023-04-16T16:07:49.436Z,18.60
2023-04-16T16:10:20.485Z,19.65
2023-04-16T16:12:50.946Z,19.40
2023-04-16T16:15:21.835Z,21.00
2023-04-16T16:17:53.744Z,19.90
2023-04-16T16:20:27.630Z,19.67
2023-04-16T16:22:58.216Z,19.35
2023-04-16T16:25:29.240Z,20.10
2023-04-16T16:27:59.732Z,19.20
2023-04-16T16:30:30.270Z,27.42
2023-04-16T16:33:01.006Z,19.77
2023-04-16T16:35:34.841Z,20.40
2023-04-16T16:38:05.450Z,20.73
2023-04-16T16:40:36.265Z,18.42
2023-04-16T16:43:06.723Z,20.38
2023-04-16T16:45:37.164Z,19.45
2023-04-16T16:48:08.090Z,20.50
2023-04-16T16:50:41.293Z,19.65
2023-04-16T16:53:11.696Z,18.77
2023-04-16T16:55:42.155Z,18.92
2023-04-16T16:58:12.679Z,20.23
2023-04-16T17:00:43.078Z,18.33
2023-04-16T17:03:13.977Z,18.48
2023-04-16T17:05:47.179Z,18.48
2023-04-16T17:08:17.638Z,18.90
2023-04-16T17:10:48.073Z,19.20
2023-04-16T17:13:19.916Z,19.60
2023-04-16T17:15:50.771Z,19.00
2023-04-16T17:18:21.148Z,20.95
2023-04-16T17:20:54.245Z,20.35
2023-04-16T17:23:24.696Z,20.50
2023-04-16T17:25:55.233Z,18.70
2023-04-16T17:28:26.197Z,19.75
2023-04-16T17:30:57.528Z,19.52
2023-04-16T17:33:28.066Z,20.13
2023-04-16T17:36:01.534Z,19.92
2023-04-16T17:38:32.026Z,20.30
2023-04-16T17:41:02.768Z,20.58
2023-04-16T17:43:33.137Z,19.85
2023-04-16T17:46:03.853Z,19.50
2023-04-16T17:48:34.313Z,20.58
2023-04-16T17:51:13.170Z,20.27
2023-04-16T17:53:44.823Z,20.23
2023-04-16T17:56:16.193Z,21.30
2023-04-16T17:58:46.783Z,20.55
2023-04-16T18:01:17.173Z,20.45
2023-04-16T18:03:47.938Z,20.35
2023-04-16T18:06:21.220Z,19.95
2023-04-16T18:08:51.646Z,20.85
2023-04-16T18:11:22.180Z,21.98
2023-04-16T18:13:53.872Z,20.05
2023-04-16T18:16:24.897Z,19.98
2023-04-16T18:18:55.330Z,18.70
2023-04-16T18:21:29.938Z,19.85
2023-04-16T18:24:03.706Z,19.35
2023-04-16T18:26:36.228Z,18.95
2023-04-16T18:29:07.292Z,18.20
2023-04-16T18:31:37.954Z,19.05
2023-04-16T18:34:08.550Z,19.38
2023-04-16T18:36:41.608Z,19.92
2023-04-16T18:39:12.165Z,19.52
2023-04-16T18:41:43.762Z,19.63
2023-04-16T18:44:15.055Z,17.80
2023-04-16T18:46:46.352Z,18.05
2023-04-16T18:49:16.913Z,18.40
2023-04-16T18:51:50.041Z,18.38
2023-04-16T18:54:20.587Z,18.95
2023-04-16T18:56:51.095Z,18.23
2023-04-16T18:59:21.616Z,18.13
2023-04-16T19:01:52.171Z,17.83
2023-04-16T19:04:22.753Z,17.95
2023-04-16T19:06:56.037Z,18.17
2023-04-16T19:09:29.277Z,18.35
2023-04-16T19:11:59.650Z,18.38
2023-04-16T19:14:30.195Z,17.65
2023-04-16T19:17:00.712Z,16.92
2023-04-16T19:19:31.349Z,17.33
2023-04-16T19:22:04.437Z,17.48
2023-04-16T19:24:34.954Z,18.38
2023-04-16T19:27:05.337Z,17.35
2023-04-16T19:29:37.119Z,17.48
2023-04-16T19:32:08.212Z,17.38
2023-04-16T19:34:38.816Z,16.75
2023-04-16T19:37:11.975Z,16.90
2023-04-16T19:39:42.508Z,18.10
2023-04-16T19:42:13.081Z,16.30
2023-04-16T19:44:43.548Z,17.33
2023-04-16T19:47:14.084Z,20.25
2023-04-16T19:49:44.926Z,17.25
2023-04-16T19:52:18.232Z,17.58
2023-04-16T19:54:48.807Z,16.35
2023-04-16T19:57:19.447Z,17.02
2023-04-16T19:59:49.836Z,16.30
2023-04-16T20:02:20.265Z,16.67
2023-04-16T20:04:50.920Z,15.75
2023-04-16T20:07:24.003Z,15.82
2023-04-16T20:09:54.934Z,15.05
2023-04-16T20:12:25.786Z,14.65
2023-04-16T20:14:56.469Z,14.77
2023-04-16T20:17:27.057Z,14.75
2023-04-16T20:20:01.002Z,15.75
2023-04-16T20:22:34.020Z,15.18
2023-04-16T20:25:05.660Z,13.68
2023-04-16T20:27:38.047Z,13.70
2023-04-16T20:30:10.350Z,17.52
2023-04-16T20:32:41.377Z,13.02
2023-04-16T20:35:15.582Z,13.45
2023-04-16T20:37:48.651Z,14.02
2023-04-16T20:40:19.428Z,13.90
2023-04-16T20:42:52.302Z,12.70
2023-04-16T20:45:24.539Z,13.60
2023-04-16T20:47:55.161Z,13.63
2023-04-16T20:50:25.663Z,13.00
2023-04-16T20:52:58.832Z,13.27
2023-04-16T20:55:32.553Z,12.93
2023-04-16T20:58:02.947Z,12.73
2023-04-16T21:00:33.536Z,13.40
2023-04-16T21:03:04.023Z,12.60
2023-04-16T21:05:34.815Z,13.13
2023-04-16T21:08:08.596Z,12.32
2023-04-16T21:10:39.180Z,13.05
2023-04-16T21:13:10.812Z,12.45
2023-04-16T21:15:42.032Z,12.52
2023-04-16T21:18:13.889Z,13.10
2023-04-16T21:20:44.343Z,13.30
2023-04-16T21:23:17.442Z,12.57
2023-04-16T21:25:47.905Z,12.98
2023-04-16T21:28:18.378Z,12.75
2023-04-16T21:30:48.722Z,13.30
2023-04-16T21:33:19.029Z,13.25
2023-04-16T21:35:55.072Z,13.57
2023-04-16T21:38:28.120Z,12.93
2023-04-16T21:40:58.657Z,12.95
2023-04-16T21:43:30.749Z,14.02
2023-04-16T21:46:01.399Z,14.10
2023-04-16T21:48:31.791Z,13.95
2023-04-16T21:51:06.695Z,12.43
2023-04-16T21:53:40.029Z,12.85
2023-04-16T21:56:11.054Z,13.18
2023-04-16T21:58:41.429Z,12.38
2023-04-16T22:01:11.790Z,12.88
2023-04-16T22:03:42.654Z,12.82
2023-04-16T22:06:14.275Z,13.25
2023-04-16T22:08:47.269Z,13.27
2023-04-16T22:11:17.762Z,13.18
2023-04-16T22:13:49.656Z,12.85
2023-04-16T22:16:19.981Z,11.95
2023-04-16T22:18:50.393Z,13.05
2023-04-16T22:21:20.748Z,12.60
2023-04-16T22:23:53.770Z,13.32
2023-04-16T22:26:24.139Z,13.38
2023-04-16T22:28:54.709Z,12.60
2023-04-16T22:31:25.118Z,12.57
2023-04-16T22:33:55.727Z,13.65
2023-04-16T22:36:26.612Z,12.68
2023-04-16T22:38:59.549Z,12.43
2023-04-16T22:41:30.080Z,12.55
2023-04-16T22:44:00.539Z,12.38
2023-04-16T22:46:31.158Z,12.82
2023-04-16T22:49:01.753Z,12.95
2023-04-16T22:51:32.161Z,12.45
2023-04-16T22:54:05.378Z,11.90
2023-04-16T22:56:35.850Z,13.13
2023-04-16T22:59:06.437Z,12.30
2023-04-16T23:01:37.568Z,12.45
2023-04-16T23:04:08.283Z,12.60
2023-04-16T23:06:39.245Z,12.68
2023-04-16T23:09:12.595Z,13.50
2023-04-16T23:11:43.269Z,12.52
2023-04-16T23:14:16.210Z,13.30
2023-04-16T23:16:47.424Z,13.63
2023-04-16T23:19:17.902Z,13.35
2023-04-16T23:21:50.633Z,12.38
2023-04-16T23:24:23.909Z,12.95
2023-04-16T23:26:55.039Z,12.68
2023-04-16T23:29:25.479Z,12.85
2023-04-16T23:31:55.972Z,13.57
2023-04-16T23:34:26.519Z,12.32
2023-04-16T23:36:56.985Z,12.35
2023-04-16T23:39:30.093Z,11.55
2023-04-16T23:42:00.579Z,12.50
2023-04-16T23:44:30.944Z,12.60
2023-04-16T23:47:01.535Z,12.98
2023-04-16T23:49:32.117Z,12.13
2023-04-16T23:52:02.474Z,11.98
2023-04-16T23:54:35.633Z,12.98
2023-04-16T23:57:05.943Z,12.77
2023-04-16T23:59:36.417Z,12.85
